Terminal Aerodrome Forecast
Issued by NWS Grand Rapids, MI

Home | Current Version | Previous Version | Text Only | Print | Product List | Glossary On
Versions: 1 2 3 4 5 6 7 8 9 10 11 12 13 14 15 16 17 18 19 20 21
000
FTUS43 KGRR 010800 AAA
TAFGRR
TAF AMD
KGRR 010821Z 0108/0206 20006KT P6SM SKC
     FM011100 21004KT 5SM BR SKC
     FM011300 25004KT P6SM SCT120
     FM011700 24006KT P6SM VCSH FEW040
     FM012300 VRB05KT P6SM FEW150=

USA.gov is the U.S. government's official web portal to all federal, state and local government web resources and services.